sensor_id;sensor_type;location;lat;lon;timestamp;pressure;altitude;pressure_sealevel;temperature;humidity
12213;BME280;6169;44.158;22.788;2023-05-11T00:04:00;101322.28;;;15.54;44.76
12213;BME280;6169;44.158;22.788;2023-05-11T00:09:03;101321.03;;;15.89;43.58
12213;BME280;6169;44.158;22.788;2023-05-11T00:14:05;101317.25;;;15.68;44.56
12213;BME280;6169;44.158;22.788;2023-05-11T00:19:08;101319.25;;;15.72;44.47
12213;BME280;6169;44.158;22.788;2023-05-11T00:24:11;101318.34;;;16.43;42.96
12213;BME280;6169;44.158;22.788;2023-05-11T00:29:13;101323.81;;;16.16;43.64
12213;BME280;6169;44.158;22.788;2023-05-11T00:34:17;101320.78;;;16.17;43.56
12213;BME280;6169;44.158;22.788;2023-05-11T00:39:19;101325.03;;;16.30;43.40
12213;BME280;6169;44.158;22.788;2023-05-11T00:44:21;101324.72;;;16.26;44.06
12213;BME280;6169;44.158;22.788;2023-05-11T00:49:25;101334.66;;;15.78;45.53
12213;BME280;6169;44.158;22.788;2023-05-11T00:54:27;101329.84;;;15.91;44.70
12213;BME280;6169;44.158;22.788;2023-05-11T00:59:29;101317.81;;;15.48;45.65
12213;BME280;6169;44.158;22.788;2023-05-11T01:04:33;101332.22;;;15.21;46.52
12213;BME280;6169;44.158;22.788;2023-05-11T01:09:45;101333.28;;;15.37;46.71
12213;BME280;6169;44.158;22.788;2023-05-11T01:14:54;101331.50;;;15.48;46.37
12213;BME280;6169;44.158;22.788;2023-05-11T01:20:02;101332.38;;;15.70;46.20
12213;BME280;6169;44.158;22.788;2023-05-11T01:25:17;101328.78;;;15.48;46.64
12213;BME280;6169;44.158;22.788;2023-05-11T01:30:32;101323.47;;;15.19;47.69
12213;BME280;6169;44.158;22.788;2023-05-11T01:35:40;101324.44;;;15.13;47.92
12213;BME280;6169;44.158;22.788;2023-05-11T01:40:47;101327.34;;;15.23;47.16
12213;BME280;6169;44.158;22.788;2023-05-11T01:45:56;101319.69;;;14.86;48.28
12213;BME280;6169;44.158;22.788;2023-05-11T01:51:01;101322.53;;;15.30;47.43
12213;BME280;6169;44.158;22.788;2023-05-11T01:56:05;101326.28;;;14.23;49.79
12213;BME280;6169;44.158;22.788;2023-05-11T02:01:10;101326.38;;;14.28;49.92
12213;BME280;6169;44.158;22.788;2023-05-11T02:06:13;101319.69;;;14.86;48.51
12213;BME280;6169;44.158;22.788;2023-05-11T02:11:18;101333.31;;;15.59;47.12
12213;BME280;6169;44.158;22.788;2023-05-11T02:16:23;101325.84;;;15.76;46.54
12213;BME280;6169;44.158;22.788;2023-05-11T02:21:28;101330.00;;;15.18;47.55
12213;BME280;6169;44.158;22.788;2023-05-11T02:26:32;101331.56;;;14.92;47.96
12213;BME280;6169;44.158;22.788;2023-05-11T02:31:46;101333.19;;;15.10;47.64
12213;BME280;6169;44.158;22.788;2023-05-11T02:36:52;101341.34;;;15.05;47.80
12213;BME280;6169;44.158;22.788;2023-05-11T02:41:57;101339.28;;;15.34;46.58
12213;BME280;6169;44.158;22.788;2023-05-11T02:47:03;101323.94;;;14.94;47.88
12213;BME280;6169;44.158;22.788;2023-05-11T02:52:08;101335.19;;;14.98;47.98
12213;BME280;6169;44.158;22.788;2023-05-11T02:57:12;101341.97;;;15.51;46.22
12213;BME280;6169;44.158;22.788;2023-05-11T03:02:15;101340.44;;;14.99;46.52
12213;BME280;6169;44.158;22.788;2023-05-11T03:07:18;101344.16;;;14.93;47.08
12213;BME280;6169;44.158;22.788;2023-05-11T03:12:20;101353.22;;;15.32;46.75
12213;BME280;6169;44.158;22.788;2023-05-11T03:17:24;101359.13;;;15.24;46.08
12213;BME280;6169;44.158;22.788;2023-05-11T03:22:28;101363.28;;;15.66;45.63
12213;BME280;6169;44.158;22.788;2023-05-11T03:27:32;101364.03;;;15.22;46.22
12213;BME280;6169;44.158;22.788;2023-05-11T03:32:37;101366.50;;;15.24;45.87
12213;BME280;6169;44.158;22.788;2023-05-11T03:37:40;101361.06;;;15.07;46.26
12213;BME280;6169;44.158;22.788;2023-05-11T03:42:44;101370.25;;;15.18;46.22
12213;BME280;6169;44.158;22.788;2023-05-11T03:47:48;101380.25;;;14.90;46.50
12213;BME280;6169;44.158;22.788;2023-05-11T03:52:52;101383.28;;;14.60;46.42
12213;BME280;6169;44.158;22.788;2023-05-11T03:57:55;101390.91;;;14.58;47.40
12213;BME280;6169;44.158;22.788;2023-05-11T04:03:02;101395.59;;;14.74;46.62
12213;BME280;6169;44.158;22.788;2023-05-11T04:08:05;101395.09;;;14.77;46.93
12213;BME280;6169;44.158;22.788;2023-05-11T04:13:07;101396.94;;;15.05;46.37
12213;BME280;6169;44.158;22.788;2023-05-11T04:18:11;101406.69;;;15.18;46.40
12213;BME280;6169;44.158;22.788;2023-05-11T04:23:14;101402.59;;;15.37;45.54
12213;BME280;6169;44.158;22.788;2023-05-11T04:28:16;101410.34;;;14.73;46.57
12213;BME280;6169;44.158;22.788;2023-05-11T04:33:20;101407.88;;;14.88;45.16
12213;BME280;6169;44.158;22.788;2023-05-11T04:38:22;101419.34;;;14.28;45.98
12213;BME280;6169;44.158;22.788;2023-05-11T04:43:24;101422.28;;;14.10;46.99
12213;BME280;6169;44.158;22.788;2023-05-11T04:48:28;101417.75;;;14.44;46.38
12213;BME280;6169;44.158;22.788;2023-05-11T04:53:30;101418.91;;;14.77;45.75
12213;BME280;6169;44.158;22.788;2023-05-11T04:58:32;101430.78;;;14.25;46.70
12213;BME280;6169;44.158;22.788;2023-05-11T05:03:36;101436.47;;;14.35;45.71
12213;BME280;6169;44.158;22.788;2023-05-11T05:08:38;101435.22;;;14.14;45.98
12213;BME280;6169;44.158;22.788;2023-05-11T05:13:40;101448.59;;;13.64;46.93
12213;BME280;6169;44.158;22.788;2023-05-11T05:18:44;101438.16;;;13.84;45.72
12213;BME280;6169;44.158;22.788;2023-05-11T05:23:46;101441.97;;;14.23;44.75
12213;BME280;6169;44.158;22.788;2023-05-11T05:28:48;101447.53;;;14.86;43.85
12213;BME280;6169;44.158;22.788;2023-05-11T05:33:52;101451.31;;;13.99;44.44
12213;BME280;6169;44.158;22.788;2023-05-11T05:38:54;101443.53;;;15.44;43.11
12213;BME280;6169;44.158;22.788;2023-05-11T05:43:56;101452.84;;;15.09;42.92
12213;BME280;6169;44.158;22.788;2023-05-11T05:49:00;101465.53;;;15.88;41.34
12213;BME280;6169;44.158;22.788;2023-05-11T05:54:02;101468.19;;;14.77;42.66
12213;BME280;6169;44.158;22.788;2023-05-11T05:59:04;101469.84;;;14.78;42.62
12213;BME280;6169;44.158;22.788;2023-05-11T06:04:08;101466.69;;;15.70;41.04
12213;BME280;6169;44.158;22.788;2023-05-11T06:09:10;101465.28;;;15.34;41.65
12213;BME280;6169;44.158;22.788;2023-05-11T06:14:12;101467.13;;;15.11;41.21
12213;BME280;6169;44.158;22.788;2023-05-11T06:19:16;101462.88;;;15.21;41.14
12213;BME280;6169;44.158;22.788;2023-05-11T06:24:18;101479.97;;;14.94;40.74
12213;BME280;6169;44.158;22.788;2023-05-11T06:29:20;101481.88;;;16.00;38.66
12213;BME280;6169;44.158;22.788;2023-05-11T06:34:24;101463.28;;;15.29;40.09
12213;BME280;6169;44.158;22.788;2023-05-11T06:39:26;101488.53;;;16.04;38.72
12213;BME280;6169;44.158;22.788;2023-05-11T06:44:28;101485.06;;;15.92;38.74
12213;BME280;6169;44.158;22.788;2023-05-11T06:49:32;101479.94;;;16.22;38.21
12213;BME280;6169;44.158;22.788;2023-05-11T06:54:34;101481.91;;;15.83;37.86
12213;BME280;6169;44.158;22.788;2023-05-11T06:59:36;101490.13;;;16.98;37.25
12213;BME280;6169;44.158;22.788;2023-05-11T07:04:39;101490.34;;;15.76;37.49
12213;BME280;6169;44.158;22.788;2023-05-11T07:09:42;101484.88;;;16.20;37.57
12213;BME280;6169;44.158;22.788;2023-05-11T07:14:44;101487.66;;;15.81;37.54
12213;BME280;6169;44.158;22.788;2023-05-11T07:19:47;101492.41;;;16.08;38.21
12213;BME280;6169;44.158;22.788;2023-05-11T07:24:51;101485.94;;;15.75;37.52
12213;BME280;6169;44.158;22.788;2023-05-11T07:29:53;101493.63;;;16.39;36.65
12213;BME280;6169;44.158;22.788;2023-05-11T07:34:57;101488.00;;;16.07;37.35
12213;BME280;6169;44.158;22.788;2023-05-11T07:39:59;101490.34;;;16.64;37.34
12213;BME280;6169;44.158;22.788;2023-05-11T07:45:02;101499.75;;;17.01;37.22
12213;BME280;6169;44.158;22.788;2023-05-11T07:50:07;101486.41;;;17.47;36.21
12213;BME280;6169;44.158;22.788;2023-05-11T07:55:09;101489.44;;;17.45;35.68
12213;BME280;6169;44.158;22.788;2023-05-11T08:00:13;101498.22;;;17.90;35.07
12213;BME280;6169;44.158;22.788;2023-05-11T08:05:17;101493.50;;;18.38;35.41
12213;BME280;6169;44.158;22.788;2023-05-11T08:10:20;101496.03;;;18.49;34.30
12213;BME280;6169;44.158;22.788;2023-05-11T08:15:22;101485.84;;;17.87;35.10
12213;BME280;6169;44.158;22.788;2023-05-11T08:20:26;101493.00;;;18.61;34.43
12213;BME280;6169;44.158;22.788;2023-05-11T08:25:28;101490.88;;;18.79;32.75
12213;BME280;6169;44.158;22.788;2023-05-11T08:30:30;101497.50;;;19.34;31.82
12213;BME280;6169;44.158;22.788;2023-05-11T08:35:34;101486.16;;;19.71;31.74
12213;BME280;6169;44.158;22.788;2023-05-11T08:40:36;101486.09;;;19.92;31.19
12213;BME280;6169;44.158;22.788;2023-05-11T08:45:41;101482.91;;;19.54;31.42
12213;BME280;6169;44.158;22.788;2023-05-11T08:50:49;101480.00;;;20.00;29.84
12213;BME280;6169;44.158;22.788;2023-05-11T08:55:53;101463.16;;;20.01;30.15
12213;BME280;6169;44.158;22.788;2023-05-11T09:00:56;101470.06;;;19.99;30.25
12213;BME280;6169;44.158;22.788;2023-05-11T09:06:02;101466.63;;;20.33;29.87
12213;BME280;6169;44.158;22.788;2023-05-11T09:11:06;101456.81;;;20.56;29.77
12213;BME280;6169;44.158;22.788;2023-05-11T09:16:09;101448.31;;;19.87;30.30
12213;BME280;6169;44.158;22.788;2023-05-11T09:21:13;101457.13;;;19.94;29.78
12213;BME280;6169;44.158;22.788;2023-05-11T09:26:16;101459.38;;;19.77;28.91
12213;BME280;6169;44.158;22.788;2023-05-11T09:31:38;101456.81;;;20.06;28.58
12213;BME280;6169;44.158;22.788;2023-05-11T09:36:42;101450.88;;;20.83;28.77
12213;BME280;6169;44.158;22.788;2023-05-11T09:41:44;101451.31;;;20.95;27.41
12213;BME280;6169;44.158;22.788;2023-05-11T09:46:47;101441.03;;;21.01;26.44
12213;BME280;6169;44.158;22.788;2023-05-11T09:51:59;101436.69;;;20.94;26.83
12213;BME280;6169;44.158;22.788;2023-05-11T09:57:03;101433.78;;;21.39;25.79
12213;BME280;6169;44.158;22.788;2023-05-11T10:02:18;101436.06;;;21.03;25.89
12213;BME280;6169;44.158;22.788;2023-05-11T10:07:27;101414.69;;;21.37;25.38
12213;BME280;6169;44.158;22.788;2023-05-11T10:12:30;101410.25;;;21.12;25.26
12213;BME280;6169;44.158;22.788;2023-05-11T10:17:33;101410.41;;;21.55;25.92
12213;BME280;6169;44.158;22.788;2023-05-11T10:22:38;101402.16;;;21.45;25.60
12213;BME280;6169;44.158;22.788;2023-05-11T10:27:40;101397.47;;;21.46;25.30
12213;BME280;6169;44.158;22.788;2023-05-11T10:32:43;101387.28;;;21.89;25.07
12213;BME280;6169;44.158;22.788;2023-05-11T10:37:49;101384.91;;;21.58;24.32
12213;BME280;6169;44.158;22.788;2023-05-11T10:43:17;101391.53;;;21.33;25.11
12213;BME280;6169;44.158;22.788;2023-05-11T10:48:53;101389.53;;;21.39;25.00
12213;BME280;6169;44.158;22.788;2023-05-11T10:54:12;101391.47;;;21.87;24.77
12213;BME280;6169;44.158;22.788;2023-05-11T10:59:34;101392.94;;;21.79;23.83
12213;BME280;6169;44.158;22.788;2023-05-11T11:04:43;101374.50;;;21.93;22.65
12213;BME280;6169;44.158;22.788;2023-05-11T11:09:53;101369.84;;;21.89;23.32
12213;BME280;6169;44.158;22.788;2023-05-11T11:14:57;101363.09;;;21.76;23.52
12213;BME280;6169;44.158;22.788;2023-05-11T11:20:00;101353.88;;;21.80;23.68
12213;BME280;6169;44.158;22.788;2023-05-11T11:25:06;101356.47;;;21.96;23.08
12213;BME280;6169;44.158;22.788;2023-05-11T11:30:18;101350.25;;;21.85;24.52
12213;BME280;6169;44.158;22.788;2023-05-11T11:35:46;101358.75;;;21.70;23.82
12213;BME280;6169;44.158;22.788;2023-05-11T11:40:50;101354.84;;;21.23;24.21
12213;BME280;6169;44.158;22.788;2023-05-11T11:45:53;101350.97;;;21.48;24.56
12213;BME280;6169;44.158;22.788;2023-05-11T11:51:03;101342.44;;;21.20;24.05
12213;BME280;6169;44.158;22.788;2023-05-11T12:01:35;101344.28;;;22.16;24.47
12213;BME280;6169;44.158;22.788;2023-05-11T12:06:38;101337.53;;;22.74;23.83
12213;BME280;6169;44.158;22.788;2023-05-11T12:11:45;101331.00;;;22.50;23.50
12213;BME280;6169;44.158;22.788;2023-05-11T12:17:01;101326.53;;;21.98;24.49
12213;BME280;6169;44.158;22.788;2023-05-11T12:22:04;101331.63;;;22.10;24.41
12213;BME280;6169;44.158;22.788;2023-05-11T12:27:07;101324.66;;;22.31;24.70
12213;BME280;6169;44.158;22.788;2023-05-11T12:32:10;101314.78;;;22.25;24.65
12213;BME280;6169;44.158;22.788;2023-05-11T12:37:13;101314.75;;;22.44;24.37
12213;BME280;6169;44.158;22.788;2023-05-11T12:42:20;101306.97;;;22.46;24.60
12213;BME280;6169;44.158;22.788;2023-05-11T12:47:22;101300.47;;;22.37;25.30
12213;BME280;6169;44.158;22.788;2023-05-11T12:52:24;101301.81;;;22.39;24.45
12213;BME280;6169;44.158;22.788;2023-05-11T12:57:29;101293.13;;;22.46;25.36
12213;BME280;6169;44.158;22.788;2023-05-11T13:02:33;101292.31;;;22.59;25.37
12213;BME280;6169;44.158;22.788;2023-05-11T13:07:35;101294.94;;;22.37;24.48
12213;BME280;6169;44.158;22.788;2023-05-11T13:12:50;101285.78;;;22.69;25.37
12213;BME280;6169;44.158;22.788;2023-05-11T13:17:56;101283.44;;;21.92;25.15
12213;BME280;6169;44.158;22.788;2023-05-11T13:23:04;101277.84;;;22.16;25.51
12213;BME280;6169;44.158;22.788;2023-05-11T13:28:08;101276.41;;;22.18;25.25
12213;BME280;6169;44.158;22.788;2023-05-11T13:33:10;101272.50;;;22.99;25.41
12213;BME280;6169;44.158;22.788;2023-05-11T13:38:12;101273.44;;;22.61;25.04
12213;BME280;6169;44.158;22.788;2023-05-11T13:43:15;101273.22;;;22.44;25.68
12213;BME280;6169;44.158;22.788;2023-05-11T13:48:18;101273.69;;;22.32;26.02
12213;BME280;6169;44.158;22.788;2023-05-11T13:53:20;101262.28;;;22.01;25.73
12213;BME280;6169;44.158;22.788;2023-05-11T13:58:23;101257.13;;;21.75;25.28
12213;BME280;6169;44.158;22.788;2023-05-11T14:03:26;101264.47;;;21.42;25.17
12213;BME280;6169;44.158;22.788;2023-05-11T14:08:30;101245.13;;;21.18;25.55
12213;BME280;6169;44.158;22.788;2023-05-11T14:13:33;101258.63;;;21.68;26.13
12213;BME280;6169;44.158;22.788;2023-05-11T14:18:35;101249.31;;;21.15;25.96
12213;BME280;6169;44.158;22.788;2023-05-11T14:23:38;101244.91;;;21.14;25.61
12213;BME280;6169;44.158;22.788;2023-05-11T14:28:41;101243.38;;;21.46;25.09
12213;BME280;6169;44.158;22.788;2023-05-11T14:33:44;101246.59;;;21.34;26.17
12213;BME280;6169;44.158;22.788;2023-05-11T14:38:46;101237.09;;;20.98;26.92
12213;BME280;6169;44.158;22.788;2023-05-11T14:43:49;101239.31;;;20.03;26.73
12213;BME280;6169;44.158;22.788;2023-05-11T14:48:52;101236.72;;;21.04;26.94
12213;BME280;6169;44.158;22.788;2023-05-11T14:53:54;101231.63;;;21.16;26.94
12213;BME280;6169;44.158;22.788;2023-05-11T14:58:58;101230.44;;;20.99;27.13
12213;BME280;6169;44.158;22.788;2023-05-11T15:04:00;101226.25;;;21.01;27.95
12213;BME280;6169;44.158;22.788;2023-05-11T15:09:03;101236.53;;;20.42;28.07
12213;BME280;6169;44.158;22.788;2023-05-11T15:14:07;101226.19;;;20.29;28.45
12213;BME280;6169;44.158;22.788;2023-05-11T15:19:10;101225.78;;;20.07;28.52
12213;BME280;6169;44.158;22.788;2023-05-11T15:24:12;101230.78;;;20.39;28.66
12213;BME280;6169;44.158;22.788;2023-05-11T15:29:15;101231.50;;;19.81;28.88
12213;BME280;6169;44.158;22.788;2023-05-11T15:34:18;101221.94;;;20.37;28.51
12213;BME280;6169;44.158;22.788;2023-05-11T15:39:20;101216.91;;;19.21;29.20
12213;BME280;6169;44.158;22.788;2023-05-11T15:44:24;101235.47;;;19.65;28.79
12213;BME280;6169;44.158;22.788;2023-05-11T15:49:26;101232.13;;;20.07;28.74
12213;BME280;6169;44.158;22.788;2023-05-11T15:54:28;101234.88;;;19.73;28.74
12213;BME280;6169;44.158;22.788;2023-05-11T15:59:33;101237.03;;;19.81;29.21
12213;BME280;6169;44.158;22.788;2023-05-11T16:04:37;101236.81;;;19.72;29.93
12213;BME280;6169;44.158;22.788;2023-05-11T16:09:40;101242.75;;;19.45;29.64
12213;BME280;6169;44.158;22.788;2023-05-11T16:14:43;101241.63;;;19.46;30.19
12213;BME280;6169;44.158;22.788;2023-05-11T16:19:46;101238.69;;;19.77;30.16
12213;BME280;6169;44.158;22.788;2023-05-11T16:24:48;101235.06;;;19.32;30.66
12213;BME280;6169;44.158;22.788;2023-05-11T16:29:52;101244.38;;;19.51;30.06
12213;BME280;6169;44.158;22.788;2023-05-11T16:34:54;101246.28;;;19.56;30.02
12213;BME280;6169;44.158;22.788;2023-05-11T16:39:56;101254.69;;;19.20;30.60
12213;BME280;6169;44.158;22.788;2023-05-11T16:45:00;101255.28;;;19.72;30.59
12213;BME280;6169;44.158;22.788;2023-05-11T16:50:03;101257.84;;;19.58;30.14
12213;BME280;6169;44.158;22.788;2023-05-11T16:55:06;101251.81;;;19.51;30.34
12213;BME280;6169;44.158;22.788;2023-05-11T17:00:11;101257.84;;;18.73;30.23
12213;BME280;6169;44.158;22.788;2023-05-11T17:05:14;101261.09;;;19.00;30.55
12213;BME280;6169;44.158;22.788;2023-05-11T17:10:18;101256.91;;;19.13;30.28
12213;BME280;6169;44.158;22.788;2023-05-11T17:15:22;101262.41;;;19.13;30.79
12213;BME280;6169;44.158;22.788;2023-05-11T17:20:24;101264.69;;;18.90;30.77
12213;BME280;6169;44.158;22.788;2023-05-11T17:25:26;101273.19;;;19.04;30.42
12213;BME280;6169;44.158;22.788;2023-05-11T17:30:31;101271.81;;;19.02;30.96
12213;BME280;6169;44.158;22.788;2023-05-11T17:35:33;101276.28;;;18.62;31.27
12213;BME280;6169;44.158;22.788;2023-05-11T17:40:36;101137.38;;;17.72;31.94
12213;BME280;6169;44.158;22.788;2023-05-11T17:45:40;101280.41;;;18.95;31.47
12213;BME280;6169;44.158;22.788;2023-05-11T17:50:42;101277.94;;;18.83;32.01
12213;BME280;6169;44.158;22.788;2023-05-11T17:55:44;101283.16;;;18.59;32.48
12213;BME280;6169;44.158;22.788;2023-05-11T18:00:48;101290.38;;;18.40;32.45
12213;BME280;6169;44.158;22.788;2023-05-11T18:05:50;101290.88;;;17.96;32.94
12213;BME280;6169;44.158;22.788;2023-05-11T18:10:52;101287.22;;;17.80;33.86
12213;BME280;6169;44.158;22.788;2023-05-11T18:15:56;101292.28;;;18.19;33.59
12213;BME280;6169;44.158;22.788;2023-05-11T18:21:03;101290.56;;;17.92;33.62
12213;BME280;6169;44.158;22.788;2023-05-11T18:26:06;101297.84;;;17.46;34.70
12213;BME280;6169;44.158;22.788;2023-05-11T18:31:10;101310.06;;;17.18;34.56
12213;BME280;6169;44.158;22.788;2023-05-11T18:36:12;101307.00;;;17.72;34.27
12213;BME280;6169;44.158;22.788;2023-05-11T18:41:15;101324.44;;;17.98;34.00
12213;BME280;6169;44.158;22.788;2023-05-11T18:46:19;101326.84;;;17.79;33.81
12213;BME280;6169;44.158;22.788;2023-05-11T18:51:21;101330.97;;;17.81;34.54
12213;BME280;6169;44.158;22.788;2023-05-11T18:56:23;101329.50;;;17.64;34.82
12213;BME280;6169;44.158;22.788;2023-05-11T19:01:27;101340.59;;;17.79;34.83
12213;BME280;6169;44.158;22.788;2023-05-11T19:06:29;101346.72;;;17.96;34.37
12213;BME280;6169;44.158;22.788;2023-05-11T19:11:32;101337.53;;;17.80;34.34
12213;BME280;6169;44.158;22.788;2023-05-11T19:16:36;101339.78;;;17.83;34.59
12213;BME280;6169;44.158;22.788;2023-05-11T19:21:39;101340.94;;;18.03;34.46
12213;BME280;6169;44.158;22.788;2023-05-11T19:26:42;101344.56;;;18.19;33.91
12213;BME280;6169;44.158;22.788;2023-05-11T19:31:46;101348.72;;;18.32;34.56
12213;BME280;6169;44.158;22.788;2023-05-11T19:36:48;101343.22;;;17.48;34.54
12213;BME280;6169;44.158;22.788;2023-05-11T19:41:51;101349.19;;;18.03;34.39
12213;BME280;6169;44.158;22.788;2023-05-11T19:46:54;101353.16;;;17.59;34.83
12213;BME280;6169;44.158;22.788;2023-05-11T19:51:57;101344.13;;;17.64;34.99
12213;BME280;6169;44.158;22.788;2023-05-11T19:56:59;101346.44;;;17.35;35.05
12213;BME280;6169;44.158;22.788;2023-05-11T20:02:03;101348.53;;;17.80;34.21
12213;BME280;6169;44.158;22.788;2023-05-11T20:07:06;101346.63;;;17.86;35.04
12213;BME280;6169;44.158;22.788;2023-05-11T20:12:08;101344.78;;;17.34;34.74
12213;BME280;6169;44.158;22.788;2023-05-11T20:17:12;101351.59;;;17.79;34.27
12213;BME280;6169;44.158;22.788;2023-05-11T20:22:14;101351.66;;;17.99;34.11
12213;BME280;6169;44.158;22.788;2023-05-11T20:27:16;101357.56;;;17.55;35.23
12213;BME280;6169;44.158;22.788;2023-05-11T20:32:20;101349.84;;;17.57;34.71
12213;BME280;6169;44.158;22.788;2023-05-11T20:37:22;101356.31;;;17.31;35.39
12213;BME280;6169;44.158;22.788;2023-05-11T20:42:24;101350.00;;;16.93;35.17
12213;BME280;6169;44.158;22.788;2023-05-11T20:47:28;101346.56;;;17.66;34.52
12213;BME280;6169;44.158;22.788;2023-05-11T20:52:31;101345.16;;;17.58;34.75
12213;BME280;6169;44.158;22.788;2023-05-11T20:57:33;101344.03;;;17.06;35.29
12213;BME280;6169;44.158;22.788;2023-05-11T21:02:37;101344.53;;;17.41;34.73
12213;BME280;6169;44.158;22.788;2023-05-11T21:07:39;101350.03;;;17.41;34.72
12213;BME280;6169;44.158;22.788;2023-05-11T21:12:41;101340.91;;;17.25;35.67
12213;BME280;6169;44.158;22.788;2023-05-11T21:17:44;101348.97;;;17.42;34.62
12213;BME280;6169;44.158;22.788;2023-05-11T21:22:47;101339.38;;;17.07;35.42
12213;BME280;6169;44.158;22.788;2023-05-11T21:27:49;101349.03;;;16.72;35.60
12213;BME280;6169;44.158;22.788;2023-05-11T21:32:52;101348.75;;;17.11;34.75
12213;BME280;6169;44.158;22.788;2023-05-11T21:37:54;101336.59;;;17.02;34.93
12213;BME280;6169;44.158;22.788;2023-05-11T21:42:57;101342.53;;;17.26;35.24
12213;BME280;6169;44.158;22.788;2023-05-11T21:48:00;101352.06;;;17.60;34.39
12213;BME280;6169;44.158;22.788;2023-05-11T21:53:02;101356.69;;;17.50;34.94
12213;BME280;6169;44.158;22.788;2023-05-11T21:58:05;101348.97;;;17.42;34.25
12213;BME280;6169;44.158;22.788;2023-05-11T22:03:09;101360.28;;;17.50;34.76
12213;BME280;6169;44.158;22.788;2023-05-11T22:08:12;101355.09;;;17.16;35.19
12213;BME280;6169;44.158;22.788;2023-05-11T22:13:14;101348.53;;;17.18;35.20
12213;BME280;6169;44.158;22.788;2023-05-11T22:18:17;101360.25;;;17.45;35.11
12213;BME280;6169;44.158;22.788;2023-05-11T22:23:19;101368.81;;;17.11;36.00
12213;BME280;6169;44.158;22.788;2023-05-11T22:28:22;101374.06;;;17.66;34.90
12213;BME280;6169;44.158;22.788;2023-05-11T22:33:25;101376.22;;;17.53;35.03
12213;BME280;6169;44.158;22.788;2023-05-11T22:38:27;101386.59;;;17.41;35.86
12213;BME280;6169;44.158;22.788;2023-05-11T22:43:29;101393.28;;;17.60;36.51
12213;BME280;6169;44.158;22.788;2023-05-11T22:48:33;101398.16;;;17.06;37.42
12213;BME280;6169;44.158;22.788;2023-05-11T22:53:35;101389.63;;;17.02;38.68
12213;BME280;6169;44.158;22.788;2023-05-11T22:58:37;101405.63;;;16.46;40.10
12213;BME280;6169;44.158;22.788;2023-05-11T23:03:41;101404.06;;;16.55;39.95
12213;BME280;6169;44.158;22.788;2023-05-11T23:08:43;101415.13;;;15.89;41.51
12213;BME280;6169;44.158;22.788;2023-05-11T23:13:45;101398.88;;;16.32;41.78
12213;BME280;6169;44.158;22.788;2023-05-11T23:18:49;101402.09;;;15.79;41.88
12213;BME280;6169;44.158;22.788;2023-05-11T23:23:51;101390.50;;;16.21;41.23
12213;BME280;6169;44.158;22.788;2023-05-11T23:28:53;101390.97;;;16.13;40.87
12213;BME280;6169;44.158;22.788;2023-05-11T23:33:57;101396.25;;;16.20;40.64
12213;BME280;6169;44.158;22.788;2023-05-11T23:38:59;101394.66;;;16.46;41.82
12213;BME280;6169;44.158;22.788;2023-05-11T23:44:01;101408.41;;;16.51;41.85
12213;BME280;6169;44.158;22.788;2023-05-11T23:49:05;101404.50;;;15.54;42.88
12213;BME280;6169;44.158;22.788;2023-05-11T23:54:07;101404.56;;;16.03;42.65
12213;BME280;6169;44.158;22.788;2023-05-11T23:59:09;101402.06;;;16.23;42.72
